createdAt,value
2016-07-07T00:00:24.079Z,8.65
2016-07-07T00:01:24.090Z,8.67
2016-07-07T00:02:24.138Z,8.57
2016-07-07T00:03:24.150Z,8.46
2016-07-07T00:04:24.184Z,8.47
2016-07-07T00:05:24.048Z,8.43
2016-07-07T00:06:23.845Z,8.43
2016-07-07T00:07:24.061Z,8.31
2016-07-07T00:08:24.079Z,8.39
2016-07-07T00:09:24.017Z,8.42
2016-07-07T00:10:24.006Z,8.35
2016-07-07T00:11:24.118Z,8.31
2016-07-07T00:12:24.050Z,8.26
2016-07-07T00:13:24.011Z,8.31
2016-07-07T00:14:23.900Z,8.32
2016-07-07T00:15:23.996Z,8.31
2016-07-07T00:16:23.821Z,8.25
2016-07-07T00:17:24.010Z,8.34
2016-07-07T00:18:23.704Z,8.24
2016-07-07T00:19:23.768Z,8.32
2016-07-07T00:20:23.909Z,8.29
2016-07-07T00:21:23.912Z,8.24
2016-07-07T00:22:23.939Z,8.24
2016-07-07T00:23:23.887Z,8.25
2016-07-07T00:24:24.013Z,8.26
2016-07-07T00:25:23.851Z,8.28
2016-07-07T00:26:23.892Z,8.26
2016-07-07T00:27:23.890Z,8.31
2016-07-07T00:28:23.824Z,8.34
2016-07-07T00:29:23.959Z,8.26
2016-07-07T00:30:23.925Z,8.28
2016-07-07T00:31:23.580Z,8.19
2016-07-07T00:32:23.764Z,8.21
2016-07-07T00:33:23.664Z,8.16
2016-07-07T00:34:23.641Z,8.22
2016-07-07T00:35:23.693Z,8.19
2016-07-07T00:36:23.596Z,8.13
2016-07-07T00:37:23.804Z,8.21
2016-07-07T00:38:23.768Z,8.22
2016-07-07T00:39:23.780Z,8.14
2016-07-07T00:40:23.765Z,8.11
2016-07-07T00:41:23.565Z,8.21
2016-07-07T00:42:23.819Z,8.06
2016-07-07T00:43:23.715Z,8.14
2016-07-07T00:44:23.716Z,8.1
2016-07-07T00:45:23.715Z,8.09
2016-07-07T00:46:23.499Z,8.09
2016-07-07T00:47:23.765Z,8.16
2016-07-07T00:48:23.683Z,8.07
2016-07-07T00:49:23.674Z,8.16
2016-07-07T00:50:23.765Z,8.04
2016-07-07T00:51:23.510Z,8.06
2016-07-07T00:52:23.679Z,8.06
2016-07-07T00:53:23.643Z,8.04
2016-07-07T00:54:23.719Z,8.16
2016-07-07T00:55:23.578Z,8.21
2016-07-07T00:56:23.401Z,8.16
2016-07-07T00:57:23.603Z,8.16
2016-07-07T00:58:23.601Z,8.17
2016-07-07T00:59:23.623Z,8.22
2016-07-07T01:00:23.461Z,8.22
2016-07-07T01:01:23.366Z,8.21
2016-07-07T01:02:23.691Z,8.22
2016-07-07T01:03:23.449Z,8.14
2016-07-07T01:04:23.489Z,8.14
2016-07-07T01:05:23.287Z,8.16
2016-07-07T01:06:23.366Z,8.16
2016-07-07T01:07:23.480Z,8.07
2016-07-07T01:08:23.553Z,8.16
2016-07-07T01:09:23.590Z,8.19
2016-07-07T01:10:23.537Z,8.13
2016-07-07T01:11:23.280Z,8.13
2016-07-07T01:12:24.059Z,8.22
2016-07-07T01:13:23.515Z,8.17
2016-07-07T01:14:23.242Z,8.14
2016-07-07T01:15:23.481Z,8.24
2016-07-07T01:16:23.398Z,8.17
2016-07-07T01:17:23.414Z,8.19
2016-07-07T01:18:23.493Z,8.24
2016-07-07T01:19:23.320Z,8.16
2016-07-07T01:20:23.394Z,8.22
2016-07-07T01:21:23.282Z,8.16
2016-07-07T01:22:23.368Z,8.21
2016-07-07T01:23:23.435Z,8.21
2016-07-07T01:24:23.365Z,8.22
2016-07-07T01:25:23.360Z,8.14
2016-07-07T01:26:23.394Z,8.17
2016-07-07T01:27:23.328Z,8.21
2016-07-07T01:28:23.398Z,8.29
2016-07-07T01:29:23.130Z,8.28
2016-07-07T01:30:23.369Z,8.31
2016-07-07T01:31:23.116Z,8.32
2016-07-07T01:32:23.089Z,8.21
2016-07-07T01:33:23.089Z,8.29
2016-07-07T01:34:23.145Z,8.24
2016-07-07T01:35:23.254Z,8.32
2016-07-07T01:36:23.250Z,8.29
2016-07-07T01:37:23.215Z,8.19
2016-07-07T01:38:23.245Z,8.16
2016-07-07T01:39:23.044Z,8.16
2016-07-07T01:40:23.016Z,8.14
2016-07-07T01:41:23.186Z,8.06
2016-07-07T01:42:23.006Z,8.14
2016-07-07T01:43:23.203Z,8.14
2016-07-07T01:44:23.214Z,8.14
2016-07-07T01:45:23.148Z,8.06
2016-07-07T01:46:23.124Z,8.04
2016-07-07T01:47:22.921Z,8.04
2016-07-07T01:48:22.894Z,8.07
2016-07-07T01:49:23.017Z,8.04
2016-07-07T01:50:23.118Z,8.04
2016-07-07T01:51:23.087Z,8.06
2016-07-07T01:52:23.094Z,8.07
2016-07-07T01:53:22.895Z,8.07
2016-07-07T01:54:23.044Z,8.1
2016-07-07T01:55:23.076Z,8.07
2016-07-07T01:56:23.124Z,8.03
2016-07-07T01:57:22.995Z,8.04
2016-07-07T01:58:23.046Z,8.07
2016-07-07T01:59:22.857Z,8.04
2016-07-07T02:00:22.919Z,8.07
2016-07-07T02:01:22.992Z,8.04
2016-07-07T02:02:22.993Z,8.04
2016-07-07T02:03:23.004Z,8.06
2016-07-07T02:04:22.865Z,8.07
2016-07-07T02:05:22.772Z,8.1
2016-07-07T02:06:22.963Z,8.1
2016-07-07T02:07:23.021Z,8.06
2016-07-07T02:08:23.013Z,8.14
2016-07-07T02:09:22.965Z,8.07
2016-07-07T02:10:22.937Z,8.11
2016-07-07T02:11:22.830Z,8.17
2016-07-07T02:12:22.729Z,8.24
2016-07-07T02:13:22.962Z,8.24
2016-07-07T02:14:22.924Z,8.17
2016-07-07T02:15:22.958Z,8.26
2016-07-07T02:16:22.908Z,8.35
2016-07-07T02:17:22.910Z,8.43
2016-07-07T02:18:22.886Z,8.44
2016-07-07T02:19:22.896Z,8.54
2016-07-07T02:20:22.847Z,8.6
2016-07-07T02:21:22.852Z,8.61
2016-07-07T02:22:22.754Z,8.69
2016-07-07T02:23:23.465Z,8.76
2016-07-07T02:24:22.825Z,8.82
2016-07-07T02:25:22.696Z,8.89
2016-07-07T02:26:22.781Z,8.94
2016-07-07T02:27:22.800Z,8.9
2016-07-07T02:28:22.587Z,8.87
2016-07-07T02:29:22.601Z,8.94
2016-07-07T02:30:22.759Z,8.98
2016-07-07T02:31:22.730Z,8.98
2016-07-07T02:32:22.777Z,9.03
2016-07-07T02:33:22.830Z,9.08
2016-07-07T02:34:22.605Z,9.09
2016-07-07T02:35:22.577Z,9.09
2016-07-07T02:36:22.711Z,9.16
2016-07-07T02:37:22.470Z,9.14
2016-07-07T02:38:22.738Z,9.23
2016-07-07T02:39:22.644Z,9.21
2016-07-07T02:40:22.663Z,9.23
2016-07-07T02:41:22.632Z,9.21
2016-07-07T02:42:23.338Z,9.29
2016-07-07T02:43:22.621Z,9.32
2016-07-07T02:44:22.654Z,9.16
2016-07-07T02:45:22.634Z,9.27
2016-07-07T02:46:22.634Z,9.3
2016-07-07T02:47:22.641Z,9.35
2016-07-07T02:48:22.482Z,9.38
2016-07-07T02:49:22.576Z,9.32
2016-07-07T02:50:22.504Z,9.35
2016-07-07T02:51:22.541Z,9.41
2016-07-07T02:52:22.570Z,9.34
2016-07-07T02:53:22.559Z,9.41
2016-07-07T02:54:22.562Z,9.5
2016-07-07T02:55:23.058Z,9.5
2016-07-07T02:56:22.549Z,9.52
2016-07-07T02:57:22.345Z,9.5
2016-07-07T02:58:22.425Z,9.57
2016-07-07T02:59:22.503Z,9.62
2016-07-07T03:00:22.509Z,9.57
2016-07-07T03:01:22.370Z,9.6
2016-07-07T03:02:22.493Z,9.66
2016-07-07T03:03:22.519Z,9.56
2016-07-07T03:04:22.388Z,9.63
2016-07-07T03:05:22.364Z,9.67
2016-07-07T03:06:22.373Z,9.71
2016-07-07T03:07:22.462Z,9.75
2016-07-07T03:08:22.333Z,9.8
2016-07-07T03:09:22.327Z,9.93
2016-07-07T03:10:22.360Z,9.84
2016-07-07T03:11:22.395Z,9.8
2016-07-07T03:12:22.434Z,9.89
2016-07-07T03:13:22.446Z,9.98
2016-07-07T03:14:22.441Z,9.93
2016-07-07T03:15:22.434Z,9.93
2016-07-07T03:16:22.421Z,9.92
2016-07-07T03:17:22.513Z,9.96
2016-07-07T03:18:22.293Z,10.02
2016-07-07T03:19:22.251Z,9.99
2016-07-07T03:20:22.248Z,9.98
2016-07-07T03:21:22.259Z,10.07
2016-07-07T03:22:22.238Z,10
2016-07-07T03:23:22.215Z,9.99
2016-07-07T03:24:22.203Z,10.08
2016-07-07T03:25:22.239Z,10.07
2016-07-07T03:26:22.235Z,10.14
2016-07-07T03:27:22.242Z,10.17
2016-07-07T03:28:22.108Z,10.28
2016-07-07T03:29:22.311Z,10.15
2016-07-07T03:30:22.190Z,10.21
2016-07-07T03:31:22.189Z,10.29
2016-07-07T03:32:22.338Z,10.29
2016-07-07T03:33:22.197Z,10.23
2016-07-07T03:34:22.137Z,10.31
2016-07-07T03:35:22.123Z,10.39
2016-07-07T03:36:22.155Z,10.36
2016-07-07T03:37:22.145Z,10.44
2016-07-07T03:38:22.758Z,10.47
2016-07-07T03:39:22.215Z,10.47
2016-07-07T03:40:22.112Z,10.52
2016-07-07T03:41:22.186Z,10.55
2016-07-07T03:42:22.150Z,10.58
2016-07-07T03:43:22.318Z,10.69
2016-07-07T03:44:22.081Z,10.66
2016-07-07T03:45:22.282Z,10.67
2016-07-07T03:46:22.122Z,10.75
2016-07-07T03:47:22.059Z,10.8
2016-07-07T03:48:22.061Z,10.8
2016-07-07T03:49:22.072Z,10.84
2016-07-07T03:50:22.200Z,10.83
2016-07-07T03:51:22.660Z,10.84
2016-07-07T03:52:22.005Z,10.8
2016-07-07T03:53:22.138Z,10.77
2016-07-07T03:54:22.005Z,10.88
2016-07-07T03:55:22.011Z,10.8
2016-07-07T03:56:21.907Z,10.79
2016-07-07T03:57:21.985Z,10.8
2016-07-07T03:58:22.049Z,10.77
2016-07-07T03:59:21.964Z,10.77
2016-07-07T04:00:22.616Z,10.73
2016-07-07T04:01:22.066Z,10.79
2016-07-07T04:02:21.866Z,10.79
2016-07-07T04:03:22.102Z,10.73
2016-07-07T04:04:21.928Z,10.66
2016-07-07T04:05:22.101Z,10.65
2016-07-07T04:06:21.932Z,10.65
2016-07-07T04:07:21.903Z,10.59
2016-07-07T04:08:21.943Z,10.59
2016-07-07T04:09:22.020Z,10.58
2016-07-07T04:10:22.026Z,10.51
2016-07-07T04:11:21.911Z,10.49
2016-07-07T04:12:21.867Z,10.39
2016-07-07T04:13:21.973Z,10.32
2016-07-07T04:14:21.857Z,10.35
2016-07-07T04:15:21.863Z,10.29
2016-07-07T04:16:21.949Z,10.25
2016-07-07T04:17:21.844Z,10.28
2016-07-07T04:18:21.823Z,10.32
2016-07-07T04:19:21.821Z,10.31
2016-07-07T04:20:21.967Z,10.25
2016-07-07T04:21:21.808Z,10.23
2016-07-07T04:22:21.812Z,10.21
2016-07-07T04:23:21.773Z,10.21
2016-07-07T04:24:21.945Z,10.28
2016-07-07T04:25:22.008Z,10.28
2016-07-07T04:26:21.766Z,10.31
2016-07-07T04:27:21.909Z,10.23
2016-07-07T04:28:21.777Z,10.23
2016-07-07T04:29:21.771Z,10.32
2016-07-07T04:30:21.757Z,10.42
2016-07-07T04:31:21.722Z,10.39
2016-07-07T04:32:21.871Z,10.52
2016-07-07T04:33:21.748Z,10.58
2016-07-07T04:34:21.719Z,10.69
2016-07-07T04:35:21.726Z,10.67
2016-07-07T04:36:21.731Z,10.84
2016-07-07T04:37:21.721Z,10.88
2016-07-07T04:38:21.715Z,10.91
2016-07-07T04:39:21.687Z,10.94
2016-07-07T04:40:21.544Z,11.02
2016-07-07T04:41:21.654Z,11.03
2016-07-07T04:42:21.636Z,11.03
2016-07-07T04:43:21.736Z,11.12
2016-07-07T04:44:21.764Z,11.1
2016-07-07T04:45:21.619Z,11.06
2016-07-07T04:46:21.601Z,11.12
2016-07-07T04:47:21.638Z,11.1
2016-07-07T04:48:21.809Z,11.26
2016-07-07T04:49:21.727Z,11.24
2016-07-07T04:50:21.602Z,11.31
2016-07-07T04:51:21.592Z,11.34
2016-07-07T04:52:21.474Z,11.43
2016-07-07T04:53:21.578Z,11.49
2016-07-07T04:54:21.567Z,11.48
2016-07-07T04:55:21.587Z,11.56
2016-07-07T04:56:21.556Z,11.63
2016-07-07T04:57:21.547Z,11.6
2016-07-07T04:58:21.521Z,11.7
2016-07-07T04:59:21.525Z,11.68
2016-07-07T05:00:21.515Z,11.64
2016-07-07T05:01:21.676Z,11.67
2016-07-07T05:02:21.568Z,11.66
2016-07-07T05:03:21.560Z,11.66
2016-07-07T05:04:21.485Z,11.67
2016-07-07T05:05:21.540Z,11.63
2016-07-07T05:06:21.504Z,11.59
2016-07-07T05:07:21.482Z,11.66
2016-07-07T05:08:21.505Z,11.68
2016-07-07T05:09:21.596Z,11.6
2016-07-07T05:10:21.482Z,11.67
2016-07-07T05:11:21.478Z,11.64
2016-07-07T05:12:21.492Z,11.73
2016-07-07T05:13:21.479Z,11.67
2016-07-07T05:14:21.488Z,11.67
2016-07-07T05:15:21.378Z,11.79
2016-07-07T05:16:21.558Z,11.75
2016-07-07T05:17:21.340Z,11.84
2016-07-07T05:18:21.437Z,11.84
2016-07-07T05:19:21.424Z,11.95
2016-07-07T05:20:21.544Z,12.03
2016-07-07T05:21:21.553Z,12.1
2016-07-07T05:22:21.413Z,12.2
2016-07-07T05:23:21.320Z,12.29
2016-07-07T05:24:21.401Z,12.44
2016-07-07T05:25:21.406Z,12.61
2016-07-07T05:26:21.471Z,12.52
2016-07-07T05:27:21.303Z,12.63
2016-07-07T05:28:21.407Z,12.56
2016-07-07T05:29:21.389Z,12.62
2016-07-07T05:30:21.282Z,12.63
2016-07-07T05:31:21.481Z,12.62
2016-07-07T05:32:21.277Z,12.47
2016-07-07T05:33:21.348Z,12.51
2016-07-07T05:34:21.367Z,12.43
2016-07-07T05:35:21.364Z,12.37
2016-07-07T05:36:21.450Z,12.41
2016-07-07T05:37:21.227Z,12.41
2016-07-07T05:38:21.459Z,12.45
2016-07-07T05:39:21.423Z,12.58
2016-07-07T05:40:21.485Z,12.52
2016-07-07T05:41:21.393Z,12.53
2016-07-07T05:42:21.184Z,12.56
2016-07-07T05:43:21.271Z,12.63
2016-07-07T05:44:21.259Z,12.55
2016-07-07T05:45:21.282Z,12.62
2016-07-07T05:46:21.280Z,12.71
2016-07-07T05:47:21.186Z,12.78
2016-07-07T05:48:21.245Z,12.86
2016-07-07T05:49:21.414Z,12.98
2016-07-07T05:50:21.246Z,13.02
2016-07-07T05:51:21.398Z,13.16
2016-07-07T05:52:21.120Z,13.21
2016-07-07T05:53:21.306Z,13.32
2016-07-07T05:54:21.407Z,13.42
2016-07-07T05:55:21.341Z,13.45
2016-07-07T05:56:21.297Z,13.48
2016-07-07T05:57:21.174Z,13.6
2016-07-07T05:58:21.383Z,13.6
2016-07-07T05:59:21.192Z,13.6
2016-07-07T06:00:21.189Z,13.57
2016-07-07T06:01:21.209Z,13.68
2016-07-07T06:02:21.274Z,13.72
2016-07-07T06:03:21.186Z,13.78
2016-07-07T06:04:21.303Z,13.87
2016-07-07T06:05:21.165Z,13.95
2016-07-07T06:06:21.317Z,13.94
2016-07-07T06:07:21.238Z,14.01
2016-07-07T06:08:21.243Z,14.13
2016-07-07T06:09:21.134Z,14.28
2016-07-07T06:10:21.311Z,14.41
2016-07-07T06:11:21.311Z,14.48
2016-07-07T06:12:21.139Z,14.49
2016-07-07T06:13:21.250Z,14.49
2016-07-07T06:14:21.240Z,14.66
2016-07-07T06:15:21.105Z,14.74
2016-07-07T06:16:21.250Z,14.8
2016-07-07T06:17:21.231Z,14.89
2016-07-07T06:18:21.121Z,14.97
2016-07-07T06:19:21.207Z,15.07
2016-07-07T06:20:21.203Z,15.13
2016-07-07T06:21:21.206Z,15.19
2016-07-07T06:22:21.180Z,15.23
2016-07-07T06:23:21.200Z,15.27
2016-07-07T06:24:21.114Z,15.26
2016-07-07T06:25:21.185Z,15.31
2016-07-07T06:26:21.126Z,15.41
2016-07-07T06:27:21.108Z,15.27
2016-07-07T06:28:21.089Z,15.35
2016-07-07T06:29:21.250Z,15.27
2016-07-07T06:30:21.156Z,15.23
2016-07-07T06:31:21.063Z,15.25
2016-07-07T06:32:21.094Z,15.22
2016-07-07T06:33:21.159Z,15.22
2016-07-07T06:34:21.069Z,15.3
2016-07-07T06:35:21.163Z,15.33
2016-07-07T06:36:21.043Z,15.4
2016-07-07T06:37:21.051Z,15.45
2016-07-07T06:38:21.134Z,15.44
2016-07-07T06:39:21.028Z,15.52
2016-07-07T06:40:21.024Z,15.6
2016-07-07T06:41:20.997Z,15.67
2016-07-07T06:42:21.187Z,15.73
2016-07-07T06:43:21.194Z,15.75
2016-07-07T06:44:21.126Z,15.74
2016-07-07T06:45:21.100Z,15.8
2016-07-07T06:46:21.098Z,15.77
2016-07-07T06:47:20.977Z,15.92
2016-07-07T06:48:20.910Z,15.84
2016-07-07T06:49:20.995Z,15.93
2016-07-07T06:50:20.985Z,16.07
2016-07-07T06:51:21.084Z,16.13
2016-07-07T06:52:20.992Z,16.26
2016-07-07T06:53:20.981Z,16.32
2016-07-07T06:54:21.681Z,16.45
2016-07-07T06:55:21.002Z,16.85
2016-07-07T06:56:21.100Z,17.3
2016-07-07T06:57:20.965Z,18.2
2016-07-07T06:58:21.062Z,18.75
2016-07-07T06:59:20.931Z,19.55
2016-07-07T07:00:21.071Z,20.22
2016-07-07T07:01:20.960Z,21.06
2016-07-07T07:02:20.951Z,21.48
2016-07-07T07:03:20.963Z,22.04
2016-07-07T07:04:20.974Z,22.42
2016-07-07T07:05:21.066Z,22.64
2016-07-07T07:06:20.962Z,22.89
2016-07-07T07:07:21.071Z,23.26
2016-07-07T07:08:20.927Z,23.72
2016-07-07T07:09:21.045Z,24.17
2016-07-07T07:10:20.962Z,24.64
2016-07-07T07:11:21.079Z,25.14
2016-07-07T07:12:20.929Z,25.59
2016-07-07T07:13:20.969Z,26.01
2016-07-07T07:14:20.957Z,26.44
2016-07-07T07:15:20.961Z,26.67
2016-07-07T07:16:20.967Z,27
2016-07-07T07:17:20.949Z,27.37
2016-07-07T07:18:20.972Z,27.76
2016-07-07T07:19:21.140Z,27.9
2016-07-07T07:20:20.934Z,27.99
2016-07-07T07:21:21.021Z,28.24
2016-07-07T07:22:21.077Z,28.28
2016-07-07T07:23:20.974Z,28.12
2016-07-07T07:24:21.137Z,27.36
2016-07-07T07:25:21.090Z,26.72
2016-07-07T07:26:21.051Z,26.53
2016-07-07T07:27:21.086Z,26.5
2016-07-07T07:28:21.056Z,26.31
2016-07-07T07:29:20.969Z,26
2016-07-07T07:30:21.230Z,26.12
2016-07-07T07:31:20.972Z,26.68
2016-07-07T07:32:20.999Z,26.91
2016-07-07T07:33:21.176Z,26.67
2016-07-07T07:34:21.016Z,26.01
2016-07-07T07:35:21.162Z,25.59
2016-07-07T07:36:21.122Z,25.05
2016-07-07T07:37:21.147Z,24.48
2016-07-07T07:38:21.106Z,24.17
2016-07-07T07:39:21.034Z,23.72
2016-07-07T07:40:21.141Z,23.62
2016-07-07T07:41:21.192Z,24.08
2016-07-07T07:42:20.939Z,24.54
2016-07-07T07:43:21.163Z,24.44
2016-07-07T07:44:21.115Z,23.97
2016-07-07T07:45:21.160Z,23.52
2016-07-07T07:46:21.166Z,22.99
2016-07-07T07:47:21.018Z,23.26
2016-07-07T07:48:21.230Z,23.94
2016-07-07T07:49:21.062Z,24.83
2016-07-07T07:50:21.241Z,25.78
2016-07-07T07:51:20.968Z,26.38
2016-07-07T07:52:21.172Z,26.79
2016-07-07T07:53:21.183Z,27.05
2016-07-07T07:54:21.177Z,27.3
2016-07-07T07:55:21.084Z,26.87
2016-07-07T07:56:20.982Z,26.2
2016-07-07T07:57:21.264Z,25.3
2016-07-07T07:58:21.014Z,24.55
2016-07-07T07:59:20.985Z,23.66
2016-07-07T08:00:20.995Z,22.84
2016-07-07T08:01:21.264Z,22.22
2016-07-07T08:02:21.031Z,21.77
2016-07-07T08:03:21.249Z,22.26
2016-07-07T08:04:21.214Z,23.15
2016-07-07T08:05:21.339Z,24.12
2016-07-07T08:06:21.282Z,24.9
2016-07-07T08:07:21.041Z,24.97
2016-07-07T08:08:21.053Z,25.23
2016-07-07T08:09:21.231Z,25.3
2016-07-07T08:10:21.253Z,25.34
2016-07-07T08:11:21.231Z,25.04
2016-07-07T08:12:21.132Z,24.32
2016-07-07T08:13:21.132Z,24.45
2016-07-07T08:14:21.037Z,25.05
2016-07-07T08:15:21.305Z,25.69
2016-07-07T08:16:21.212Z,25.56
2016-07-07T08:17:21.255Z,25.17
2016-07-07T08:18:21.209Z,24.66
2016-07-07T08:19:21.190Z,24.39
2016-07-07T08:20:21.065Z,23.9
2016-07-07T08:21:21.276Z,23.34
2016-07-07T08:22:21.305Z,22.69
2016-07-07T08:23:21.142Z,22.07
2016-07-07T08:24:21.245Z,21.61
2016-07-07T08:25:21.309Z,21.21
2016-07-07T08:26:21.333Z,21.27
2016-07-07T08:27:21.337Z,21.76
2016-07-07T08:28:21.186Z,22.38
2016-07-07T08:29:21.184Z,22.84
2016-07-07T08:30:21.090Z,23.15
2016-07-07T08:31:21.230Z,23.34
2016-07-07T08:32:21.312Z,23.45
2016-07-07T08:33:21.371Z,23.77
2016-07-07T08:34:21.393Z,23.92
2016-07-07T08:35:21.316Z,23.92
2016-07-07T08:36:21.221Z,23.59
2016-07-07T08:37:21.292Z,23.38
2016-07-07T08:38:21.100Z,23.1
2016-07-07T08:39:21.285Z,22.91
2016-07-07T08:40:21.322Z,22.6
2016-07-07T08:41:21.315Z,22.24
2016-07-07T08:42:21.316Z,21.82
2016-07-07T08:43:21.270Z,21.7
2016-07-07T08:44:21.282Z,21.45
2016-07-07T08:45:21.355Z,21.21
2016-07-07T08:46:21.185Z,20.83
2016-07-07T08:47:21.321Z,20.51
2016-07-07T08:48:21.167Z,20.16
2016-07-07T08:49:21.260Z,20.16
2016-07-07T08:50:21.327Z,20.16
2016-07-07T08:51:21.317Z,20.11
2016-07-07T08:52:21.220Z,20.16
2016-07-07T08:53:21.812Z,20.3
2016-07-07T08:54:21.352Z,20.27
2016-07-07T08:55:21.332Z,20.34
2016-07-07T08:56:21.308Z,20.46
2016-07-07T08:57:21.184Z,20.34
2016-07-07T08:58:21.284Z,20.4
2016-07-07T08:59:21.285Z,20.38
2016-07-07T09:00:21.289Z,20.37
2016-07-07T09:01:21.175Z,20.07
2016-07-07T09:02:21.284Z,19.78
2016-07-07T09:03:21.279Z,19.5
2016-07-07T09:04:21.316Z,19.32
2016-07-07T09:05:21.333Z,19.25
2016-07-07T09:06:21.174Z,19.27
2016-07-07T09:07:21.362Z,19.31
2016-07-07T09:08:21.306Z,19.55
2016-07-07T09:09:21.318Z,19.68
2016-07-07T09:10:21.223Z,19.9
2016-07-07T09:11:21.303Z,20.12
2016-07-07T09:12:21.389Z,20.4
2016-07-07T09:13:21.184Z,20.56
2016-07-07T09:14:21.187Z,20.56
2016-07-07T09:15:21.175Z,20.42
2016-07-07T09:16:21.116Z,20.12
2016-07-07T09:17:21.124Z,20.12
2016-07-07T09:18:21.385Z,20.05
2016-07-07T09:19:21.321Z,20.15
2016-07-07T09:20:21.121Z,20.27
2016-07-07T09:21:21.114Z,20.37
2016-07-07T09:22:21.299Z,20.51
2016-07-07T09:23:21.261Z,20.42
2016-07-07T09:24:21.977Z,20.53
2016-07-07T09:25:21.117Z,20.56
2016-07-07T09:26:21.121Z,20.61
2016-07-07T09:27:21.097Z,20.72
2016-07-07T09:28:21.102Z,20.9
2016-07-07T09:29:21.099Z,21.12
2016-07-07T09:30:21.116Z,21.25
2016-07-07T09:31:21.111Z,21.23
2016-07-07T09:32:21.115Z,21.38
2016-07-07T09:33:21.110Z,21.43
2016-07-07T09:34:21.106Z,21.4
2016-07-07T09:35:21.131Z,21.3
2016-07-07T09:36:21.113Z,21.15
2016-07-07T09:37:21.112Z,20.97
2016-07-07T09:38:21.119Z,20.72
2016-07-07T09:39:21.122Z,20.46
2016-07-07T09:40:21.096Z,20.12
2016-07-07T09:41:21.114Z,19.98
2016-07-07T09:42:21.146Z,19.68
2016-07-07T09:43:21.169Z,19.53
2016-07-07T09:44:21.291Z,19.63
2016-07-07T09:45:21.181Z,19.63
2016-07-07T09:46:21.216Z,19.68
2016-07-07T09:47:21.168Z,19.82
2016-07-07T09:48:21.190Z,19.86
2016-07-07T09:49:21.289Z,20.04
2016-07-07T09:50:21.284Z,20.16
2016-07-07T09:51:21.175Z,20.51
2016-07-07T09:52:21.305Z,20.58
2016-07-07T09:53:21.291Z,20.64
2016-07-07T09:54:21.327Z,20.75
2016-07-07T09:55:21.295Z,20.78
2016-07-07T09:56:21.309Z,20.83
2016-07-07T09:57:21.300Z,21.06
2016-07-07T09:58:21.422Z,21.18
2016-07-07T09:59:21.124Z,21.33
2016-07-07T10:00:21.097Z,21.33
2016-07-07T10:01:21.124Z,21.38
2016-07-07T10:02:21.111Z,21.51
2016-07-07T10:03:21.120Z,21.48
2016-07-07T10:04:21.110Z,21.45
2016-07-07T10:05:21.105Z,21.22
2016-07-07T10:06:21.092Z,20.9
2016-07-07T10:07:21.102Z,20.63
2016-07-07T10:08:21.132Z,20.38
2016-07-07T10:09:21.331Z,19.93
2016-07-07T10:10:21.316Z,19.68
2016-07-07T10:11:21.359Z,19.35
2016-07-07T10:12:21.212Z,19.27
2016-07-07T10:13:21.375Z,19.19
2016-07-07T10:14:21.326Z,19.19
2016-07-07T10:15:21.126Z,19.17
2016-07-07T10:16:21.307Z,19.16
2016-07-07T10:17:21.281Z,19.17
2016-07-07T10:18:21.224Z,19.1
2016-07-07T10:19:21.330Z,19.05
2016-07-07T10:20:21.184Z,19.17
2016-07-07T10:21:21.270Z,19.25
2016-07-07T10:22:21.202Z,19.46
2016-07-07T10:23:21.221Z,19.6
2016-07-07T10:24:21.196Z,19.82
2016-07-07T10:25:21.293Z,20.02
2016-07-07T10:26:21.285Z,20.19
2016-07-07T10:27:21.285Z,20.3
2016-07-07T10:28:21.243Z,20.38
2016-07-07T10:29:21.230Z,20.11
2016-07-07T10:30:21.296Z,20.15
2016-07-07T10:31:21.400Z,20.16
2016-07-07T10:32:21.330Z,20.2
2016-07-07T10:33:21.127Z,20.27
2016-07-07T10:34:21.085Z,20.34
2016-07-07T10:35:21.368Z,20.11
2016-07-07T10:36:21.349Z,20.07
2016-07-07T10:37:21.076Z,20.08
2016-07-07T10:38:21.117Z,20.08
2016-07-07T10:39:21.334Z,20.11
2016-07-07T10:40:21.337Z,20.18
2016-07-07T10:41:21.287Z,20.05
2016-07-07T10:42:21.295Z,20.01
2016-07-07T10:43:21.085Z,20.02
2016-07-07T10:44:21.311Z,20.19
2016-07-07T10:45:21.328Z,20.35
2016-07-07T10:46:21.177Z,20.46
2016-07-07T10:47:21.298Z,20.44
2016-07-07T10:48:21.759Z,20.42
2016-07-07T10:49:21.107Z,20.32
2016-07-07T10:50:21.308Z,20.34
2016-07-07T10:51:21.316Z,20.3
2016-07-07T10:52:21.327Z,20.2
2016-07-07T10:53:21.110Z,20.02
2016-07-07T10:54:21.269Z,20.16
2016-07-07T10:55:21.288Z,20.16
2016-07-07T10:56:21.284Z,20.23
2016-07-07T10:57:21.374Z,20.4
2016-07-07T10:58:21.109Z,20.32
2016-07-07T10:59:21.136Z,20.37
2016-07-07T11:00:21.386Z,20.4
2016-07-07T11:01:21.359Z,20.32
2016-07-07T11:02:21.262Z,20.29
2016-07-07T11:03:21.251Z,20.3
2016-07-07T11:04:21.395Z,20.16
2016-07-07T11:05:21.312Z,20.07
2016-07-07T11:06:21.208Z,20.05
2016-07-07T11:07:21.361Z,19.92
2016-07-07T11:08:21.307Z,20.02
2016-07-07T11:09:21.306Z,20.01
2016-07-07T11:10:21.319Z,20.1
2016-07-07T11:11:21.363Z,20.11
2016-07-07T11:12:21.351Z,20.22
2016-07-07T11:13:21.272Z,20.41
2016-07-07T11:14:21.197Z,20.42
2016-07-07T11:15:21.194Z,20.51
2016-07-07T11:16:21.258Z,20.57
2016-07-07T11:17:21.171Z,20.53
2016-07-07T11:18:21.269Z,20.42
2016-07-07T11:19:21.103Z,20.3
2016-07-07T11:20:21.089Z,20.34
2016-07-07T11:21:21.141Z,20.29
2016-07-07T11:22:21.112Z,20.26
2016-07-07T11:23:21.182Z,20.3
2016-07-07T11:24:21.149Z,20.25
2016-07-07T11:25:21.100Z,20.18
2016-07-07T11:26:21.101Z,20.05
2016-07-07T11:27:21.087Z,20.05
2016-07-07T11:28:21.081Z,20.01
2016-07-07T11:29:21.115Z,20.02
2016-07-07T11:30:21.130Z,20.01
2016-07-07T11:31:21.114Z,19.98
2016-07-07T11:32:21.117Z,19.92
2016-07-07T11:33:21.093Z,19.78
2016-07-07T11:34:21.066Z,19.72
2016-07-07T11:35:21.170Z,19.78
2016-07-07T11:36:21.130Z,19.67
2016-07-07T11:37:21.154Z,19.52
2016-07-07T11:38:21.135Z,19.56
2016-07-07T11:39:21.136Z,19.68
2016-07-07T11:40:21.101Z,19.67
2016-07-07T11:41:21.162Z,19.64
2016-07-07T11:42:21.085Z,19.71
2016-07-07T11:43:21.106Z,19.65
2016-07-07T11:44:21.237Z,19.64
2016-07-07T11:45:21.153Z,19.6
2016-07-07T11:46:21.144Z,19.65
2016-07-07T11:47:21.095Z,19.63
2016-07-07T11:48:21.127Z,19.56
2016-07-07T11:49:21.133Z,19.57
2016-07-07T11:50:21.116Z,19.46
2016-07-07T11:51:21.131Z,19.55
2016-07-07T11:52:21.134Z,19.46
2016-07-07T11:53:21.135Z,19.49
2016-07-07T11:54:21.078Z,19.32
2016-07-07T11:55:21.146Z,19.34
2016-07-07T11:56:21.083Z,19.35
2016-07-07T11:57:21.133Z,19.4
2016-07-07T11:58:21.126Z,19.43
2016-07-07T11:59:21.456Z,19.46
2016-07-07T12:00:21.289Z,19.5
2016-07-07T12:01:21.169Z,19.53
2016-07-07T12:02:21.292Z,19.56
2016-07-07T12:03:21.267Z,19.52
2016-07-07T12:04:21.252Z,19.55
2016-07-07T12:05:21.170Z,19.56
2016-07-07T12:06:21.065Z,19.52
2016-07-07T12:07:21.354Z,19.63
2016-07-07T12:08:21.207Z,19.64
2016-07-07T12:09:21.341Z,19.67
2016-07-07T12:10:21.094Z,19.65
2016-07-07T12:11:21.277Z,19.74
2016-07-07T12:12:21.345Z,19.65
2016-07-07T12:13:21.331Z,19.7
2016-07-07T12:14:21.240Z,19.7
2016-07-07T12:15:21.244Z,19.65
2016-07-07T12:16:21.106Z,19.52
2016-07-07T12:17:21.115Z,19.72
2016-07-07T12:18:21.076Z,19.71
2016-07-07T12:19:21.058Z,19.68
2016-07-07T12:20:21.073Z,19.65
2016-07-07T12:21:21.101Z,19.5
2016-07-07T12:22:21.107Z,19.71
2016-07-07T12:23:21.067Z,19.71
2016-07-07T12:24:21.062Z,19.7
2016-07-07T12:25:21.055Z,19.57
2016-07-07T12:26:21.062Z,19.71
2016-07-07T12:27:21.134Z,19.75
2016-07-07T12:28:21.114Z,19.71
2016-07-07T12:29:21.120Z,19.72
2016-07-07T12:30:21.180Z,19.75
2016-07-07T12:31:21.080Z,19.7
2016-07-07T12:32:21.107Z,19.61
2016-07-07T12:33:21.162Z,19.57
2016-07-07T12:34:21.136Z,19.5
2016-07-07T12:35:21.106Z,19.43
2016-07-07T12:36:21.073Z,19.45
2016-07-07T12:37:21.060Z,19.49
2016-07-07T12:38:21.050Z,19.47
2016-07-07T12:39:21.066Z,19.46
2016-07-07T12:40:21.103Z,19.52
2016-07-07T12:41:21.227Z,19.6
2016-07-07T12:42:21.308Z,19.64
2016-07-07T12:43:21.113Z,19.67
2016-07-07T12:44:21.330Z,19.65
2016-07-07T12:45:21.232Z,19.68
2016-07-07T12:46:21.220Z,19.72
2016-07-07T12:47:21.119Z,19.9
2016-07-07T12:48:21.319Z,19.86
2016-07-07T12:49:21.322Z,19.83
2016-07-07T12:50:21.061Z,19.86
2016-07-07T12:51:24.183Z,19.9
2016-07-07T12:52:20.976Z,19.89
2016-07-07T12:53:21.180Z,19.85
2016-07-07T12:54:21.111Z,19.75
2016-07-07T12:55:21.110Z,19.82
2016-07-07T12:56:21.248Z,19.71
2016-07-07T12:57:21.295Z,19.74
2016-07-07T12:58:21.228Z,19.74
2016-07-07T12:59:21.229Z,19.75
2016-07-07T13:00:21.123Z,19.82
2016-07-07T13:01:21.336Z,19.86
2016-07-07T13:02:21.286Z,19.87